ADDS METAR Data INFO
IDs: Format: Raw Decoded Include TAF

Data at: 1939 UTC 16 Aug 2017

KHYI 161935Z 20015KT 10SM SCT050 36/22 A2993 RMK AO2 PWINO FZRANO RVRNO
KHYI 161915Z 20017KT 10SM FEW050 36/22 A2994 RMK AO2 PWINO FZRANO RVRNO
KHYI 161850Z 16015KT 10SM SCT050 RMK TEMP/DP/ALTIMETER MISSING,
KHYI 161745Z 16013KT 10SM BKN040 RMK TEMP/DP/ALTIMETER MISSING,
KHYI 161645Z 16013KT 10SM SCT034 RMK TEMP/DP/ALTIMETER MISSING,
KHYI 161546Z 19009KT 10SM BKN029 BKN039 RMK TEMP/DP/ALTIMETER MISSING,
KHYI 161446Z 18010KT 8SM BKN013 RMK TEMP/DP/ALTIMETER MISSING,
KHYI 161346Z 18013KT 7SM BKN013 RMK TEMP/DP/ALTIMETER MISSING,
KHYI 161245Z 16009KT 8SM SCT012 RMK TEMP/DP/ALTIMETER MISSING,
KHYI 161145Z 19009KT 7SM BKN012 RMK TEMP/DP/ALTIMETER MISSING,
KHYI 152353Z 15012KT 10SM FEW075 RMK TEMP/DP/ALTIMETER MISSING, LAST
KHYI 152250Z 14013KT 10SM BKN070 BKN085 RMK TEMP/DP/ALTIMETER MISSING,
KHYI 152150Z 15008KT 10SM SCT065 RMK TEMP/DP/ALTIMETER MISSING,
KHYI 152045Z 19013KT 10SM SCT040 RMK TEMP/DP/ALTIMETER MISSING,
KHYI 151946Z 15011KT 10SM SCT030 RMK TEMP/DP/ALTIMETER MISSING,
KHYI 151845Z 16012KT 10SM SCT030 RMK TEMP/DP/ALTIMETER MISSING,
KHYI 151745Z 16008KT 10SM SCT030 RMK TEMP/DP/ALTIMETER MISSING,
KHYI 151650Z 17010KT 10SM BKN025 RMK TEMP/DP/ALTIMETER MISSING,
KHYI 151555Z 21012KT 10SM BKN024 RMK TEMP/DP/ALTIMETER MISSING,
KHYI 151450Z 18014KT 10SM BKN012 RMK TEMP/DP/ALTIMETER MISSING,
KHYI 151345Z 16011KT 10SM BKN007 RMK TEMP/DP/ALTIMETER MISSING,
KHYI 151250Z 16005KT 7SM BKN006 RMK TEMP/DP/ALTIMETER MISSING,
KHYI 151145Z 17008KT 10SM BKN009 RMK TEMP/DP/ALTIMETER MISSING,